Terminal Aerodrome Forecast
Issued by NWS Omaha/Valley, NE

Home | Current Version | Previous Version | Text Only | Print | Product List | Glossary On
Versions: 1 2 3 4 5 6 7 8 9 10 11 12 13 14 15 16 17 18 19 20 21 22 23 24 25 26 27 28 29 30 31 32 33 34 35 36 37
000
FTUS43 KOAX 051720
TAFOFK
TAF
KOFK 051720Z 0518/0618 16014KT P6SM SCT040 BKN250
     FM052000 17017G24KT P6SM FEW040 SCT250
     FM060100 17015G22KT P6SM BKN200
     FM060500 18014KT P6SM BKN100 PROB30 0606/0612 VRB20G35KT 4SM
      TSRA BKN030CB
     FM061200 33014KT 5SM -SHRA BKN015=

USA.gov is the U.S. government's official web portal to all federal, state and local government web resources and services.